Terminal Aerodrome Forecast
Issued by NWS Goodland, KS

Home | Current Version | Previous Version | Text Only | Print | Product List | Glossary On
Versions: 1 2 3 4 5 6 7 8 9 10 11 12 13 14 15 16 17 18 19 20 21 22 23 24 25 26 27
000
FTUS43 KGLD 230455 AAC
TAFGLD
TAF AMD
KGLD 230455Z 2305/2324 13015G25KT 1/2SM FG VCSH VV002
      TEMPO 2305/2307 1SM BR OVC002
     FM231400 16012G22KT 5SM BR OVC003
     FM231700 16015G25KT P6SM SCT008 BKN020
     FM232000 15021G29KT P6SM OVC025=

USA.gov is the U.S. government's official web portal to all federal, state and local government web resources and services.